sensor_id;sensor_type;location;lat;lon;timestamp;P1;durP1;ratioP1;P2;durP2;ratioP2
61091;SDS011;46975;51.898;11.444;2022-12-20T00:01:10;9.90;;;5.07;;
61091;SDS011;46975;51.898;11.444;2022-12-20T00:03:38;14.23;;;7.65;;
61091;SDS011;46975;51.898;11.444;2022-12-20T00:06:04;19.08;;;9.10;;
61091;SDS011;46975;51.898;11.444;2022-12-20T00:08:30;11.50;;;5.75;;
61091;SDS011;46975;51.898;11.444;2022-12-20T00:10:58;19.27;;;5.95;;
61091;SDS011;46975;51.898;11.444;2022-12-20T00:13:25;12.48;;;6.88;;
61091;SDS011;46975;51.898;11.444;2022-12-20T00:16:01;10.02;;;4.97;;
61091;SDS011;46975;51.898;11.444;2022-12-20T00:18:39;15.00;;;6.97;;
61091;SDS011;46975;51.898;11.444;2022-12-20T00:21:06;9.23;;;5.25;;
61091;SDS011;46975;51.898;11.444;2022-12-20T00:23:33;9.15;;;6.00;;
61091;SDS011;46975;51.898;11.444;2022-12-20T00:26:07;13.82;;;6.45;;
61091;SDS011;46975;51.898;11.444;2022-12-20T00:28:37;10.00;;;5.82;;
61091;SDS011;46975;51.898;11.444;2022-12-20T00:31:05;10.15;;;6.22;;
61091;SDS011;46975;51.898;11.444;2022-12-20T00:33:32;15.10;;;7.53;;
61091;SDS011;46975;51.898;11.444;2022-12-20T00:35:59;17.48;;;8.73;;
61091;SDS011;46975;51.898;11.444;2022-12-20T00:38:25;8.90;;;6.25;;
61091;SDS011;46975;51.898;11.444;2022-12-20T00:43:30;12.52;;;5.78;;
61091;SDS011;46975;51.898;11.444;2022-12-20T00:45:57;13.10;;;6.30;;
61091;SDS011;46975;51.898;11.444;2022-12-20T00:48:22;10.00;;;6.03;;
61091;SDS011;46975;51.898;11.444;2022-12-20T00:50:49;13.73;;;7.97;;
61091;SDS011;46975;51.898;11.444;2022-12-20T00:53:15;14.63;;;7.18;;
61091;SDS011;46975;51.898;11.444;2022-12-20T00:55:41;8.95;;;5.60;;
61091;SDS011;46975;51.898;11.444;2022-12-20T00:58:11;10.15;;;6.20;;
61091;SDS011;46975;51.898;11.444;2022-12-20T01:00:37;14.15;;;8.10;;
61091;SDS011;46975;51.898;11.444;2022-12-20T01:03:04;15.38;;;7.07;;
61091;SDS011;46975;51.898;11.444;2022-12-20T01:05:30;12.13;;;6.47;;
61091;SDS011;46975;51.898;11.444;2022-12-20T01:07:56;10.10;;;5.10;;
61091;SDS011;46975;51.898;11.444;2022-12-20T01:10:22;13.40;;;5.53;;
61091;SDS011;46975;51.898;11.444;2022-12-20T01:12:48;7.03;;;4.65;;
61091;SDS011;46975;51.898;11.444;2022-12-20T01:15:14;15.65;;;8.15;;
61091;SDS011;46975;51.898;11.444;2022-12-20T01:17:39;7.35;;;5.30;;
61091;SDS011;46975;51.898;11.444;2022-12-20T01:20:05;10.95;;;6.72;;
61091;SDS011;46975;51.898;11.444;2022-12-20T01:22:31;11.38;;;5.38;;
61091;SDS011;46975;51.898;11.444;2022-12-20T01:24:57;10.68;;;4.53;;
61091;SDS011;46975;51.898;11.444;2022-12-20T01:27:23;11.38;;;6.05;;
61091;SDS011;46975;51.898;11.444;2022-12-20T01:29:49;10.50;;;6.03;;
61091;SDS011;46975;51.898;11.444;2022-12-20T01:32:15;14.82;;;6.93;;
61091;SDS011;46975;51.898;11.444;2022-12-20T01:34:41;13.20;;;7.07;;
61091;SDS011;46975;51.898;11.444;2022-12-20T01:37:06;11.57;;;6.30;;
61091;SDS011;46975;51.898;11.444;2022-12-20T01:39:32;12.13;;;7.05;;
61091;SDS011;46975;51.898;11.444;2022-12-20T01:41:58;13.55;;;6.93;;
61091;SDS011;46975;51.898;11.444;2022-12-20T01:46:49;15.10;;;7.55;;
61091;SDS011;46975;51.898;11.444;2022-12-20T01:51:44;12.38;;;7.72;;
61091;SDS011;46975;51.898;11.444;2022-12-20T01:54:14;16.45;;;7.95;;
61091;SDS011;46975;51.898;11.444;2022-12-20T01:56:45;16.08;;;8.90;;
61091;SDS011;46975;51.898;11.444;2022-12-20T01:59:18;16.85;;;8.85;;
61091;SDS011;46975;51.898;11.444;2022-12-20T02:01:44;21.75;;;10.27;;
61091;SDS011;46975;51.898;11.444;2022-12-20T02:04:10;18.77;;;11.23;;
61091;SDS011;46975;51.898;11.444;2022-12-20T02:06:36;14.60;;;8.15;;
61091;SDS011;46975;51.898;11.444;2022-12-20T02:09:02;21.33;;;10.50;;
61091;SDS011;46975;51.898;11.444;2022-12-20T02:31:32;13.23;;;6.90;;
61091;SDS011;46975;51.898;11.444;2022-12-20T02:34:03;13.93;;;7.20;;
61091;SDS011;46975;51.898;11.444;2022-12-20T02:36:31;13.50;;;7.00;;
61091;SDS011;46975;51.898;11.444;2022-12-20T02:38:57;14.50;;;6.80;;
61091;SDS011;46975;51.898;11.444;2022-12-20T02:41:24;11.77;;;6.68;;
61091;SDS011;46975;51.898;11.444;2022-12-20T02:47:02;13.85;;;6.50;;
61091;SDS011;46975;51.898;11.444;2022-12-20T02:49:32;13.68;;;6.97;;
61091;SDS011;46975;51.898;11.444;2022-12-20T02:52:02;16.02;;;5.90;;
61091;SDS011;46975;51.898;11.444;2022-12-20T02:54:30;10.03;;;5.90;;
61091;SDS011;46975;51.898;11.444;2022-12-20T02:57:04;13.00;;;7.45;;
61091;SDS011;46975;51.898;11.444;2022-12-20T03:00:04;11.38;;;6.07;;
61091;SDS011;46975;51.898;11.444;2022-12-20T03:02:36;13.63;;;6.30;;
61091;SDS011;46975;51.898;11.444;2022-12-20T03:05:21;9.13;;;4.90;;
61091;SDS011;46975;51.898;11.444;2022-12-20T03:07:48;10.52;;;6.30;;
61091;SDS011;46975;51.898;11.444;2022-12-20T03:10:15;12.52;;;4.85;;
61091;SDS011;46975;51.898;11.444;2022-12-20T03:12:41;13.60;;;6.05;;
61091;SDS011;46975;51.898;11.444;2022-12-20T03:15:07;8.68;;;5.95;;
61091;SDS011;46975;51.898;11.444;2022-12-20T03:17:33;9.38;;;6.60;;
61091;SDS011;46975;51.898;11.444;2022-12-20T03:19:59;10.65;;;5.00;;
61091;SDS011;46975;51.898;11.444;2022-12-20T03:22:25;10.60;;;6.43;;
61091;SDS011;46975;51.898;11.444;2022-12-20T03:24:51;11.00;;;5.57;;
61091;SDS011;46975;51.898;11.444;2022-12-20T03:27:17;10.52;;;5.93;;
61091;SDS011;46975;51.898;11.444;2022-12-20T03:29:43;9.55;;;6.07;;
61091;SDS011;46975;51.898;11.444;2022-12-20T03:32:10;13.18;;;6.28;;
61091;SDS011;46975;51.898;11.444;2022-12-20T03:34:36;11.05;;;5.95;;
61091;SDS011;46975;51.898;11.444;2022-12-20T03:37:02;6.90;;;4.25;;
61091;SDS011;46975;51.898;11.444;2022-12-20T03:39:27;12.43;;;6.15;;
61091;SDS011;46975;51.898;11.444;2022-12-20T03:41:54;9.98;;;5.53;;
61091;SDS011;46975;51.898;11.444;2022-12-20T03:44:20;10.00;;;5.95;;
61091;SDS011;46975;51.898;11.444;2022-12-20T03:46:45;13.65;;;6.97;;
61091;SDS011;46975;51.898;11.444;2022-12-20T03:49:11;9.80;;;5.20;;
61091;SDS011;46975;51.898;11.444;2022-12-20T03:51:37;7.57;;;4.82;;
61091;SDS011;46975;51.898;11.444;2022-12-20T03:54:02;15.55;;;7.22;;
61091;SDS011;46975;51.898;11.444;2022-12-20T03:56:28;12.70;;;6.50;;
61091;SDS011;46975;51.898;11.444;2022-12-20T03:58:54;8.68;;;5.05;;
61091;SDS011;46975;51.898;11.444;2022-12-20T04:01:23;8.50;;;5.38;;
61091;SDS011;46975;51.898;11.444;2022-12-20T04:03:51;12.90;;;7.57;;
61091;SDS011;46975;51.898;11.444;2022-12-20T04:06:18;9.65;;;4.55;;
61091;SDS011;46975;51.898;11.444;2022-12-20T04:08:45;9.25;;;5.15;;
61091;SDS011;46975;51.898;11.444;2022-12-20T04:11:10;10.07;;;7.10;;
61091;SDS011;46975;51.898;11.444;2022-12-20T04:16:16;11.75;;;5.22;;
61091;SDS011;46975;51.898;11.444;2022-12-20T04:18:44;13.75;;;6.40;;
61091;SDS011;46975;51.898;11.444;2022-12-20T04:21:11;10.35;;;6.25;;
61091;SDS011;46975;51.898;11.444;2022-12-20T04:23:38;10.68;;;6.78;;
61091;SDS011;46975;51.898;11.444;2022-12-20T04:26:05;9.77;;;7.13;;
61091;SDS011;46975;51.898;11.444;2022-12-20T04:28:32;8.88;;;5.18;;
61091;SDS011;46975;51.898;11.444;2022-12-20T04:30:58;4.97;;;3.78;;
61091;SDS011;46975;51.898;11.444;2022-12-20T04:33:24;11.93;;;6.22;;
61091;SDS011;46975;51.898;11.444;2022-12-20T04:35:51;8.07;;;5.18;;
61091;SDS011;46975;51.898;11.444;2022-12-20T04:38:18;7.93;;;4.63;;
61091;SDS011;46975;51.898;11.444;2022-12-20T04:40:46;7.80;;;4.72;;
61091;SDS011;46975;51.898;11.444;2022-12-20T04:43:13;10.88;;;5.63;;
61091;SDS011;46975;51.898;11.444;2022-12-20T04:45:39;9.90;;;5.22;;
61091;SDS011;46975;51.898;11.444;2022-12-20T04:48:05;10.23;;;5.03;;
61091;SDS011;46975;51.898;11.444;2022-12-20T04:50:31;10.50;;;5.28;;
61091;SDS011;46975;51.898;11.444;2022-12-20T04:52:57;11.10;;;4.70;;
61091;SDS011;46975;51.898;11.444;2022-12-20T04:55:41;4.72;;;3.17;;
61091;SDS011;46975;51.898;11.444;2022-12-20T04:58:07;9.60;;;5.53;;
61091;SDS011;46975;51.898;11.444;2022-12-20T05:00:32;13.45;;;6.63;;
61091;SDS011;46975;51.898;11.444;2022-12-20T05:02:58;10.43;;;6.45;;
61091;SDS011;46975;51.898;11.444;2022-12-20T05:05:24;13.02;;;6.40;;
61091;SDS011;46975;51.898;11.444;2022-12-20T05:07:50;11.43;;;5.20;;
61091;SDS011;46975;51.898;11.444;2022-12-20T05:10:17;8.95;;;5.53;;
61091;SDS011;46975;51.898;11.444;2022-12-20T05:12:43;11.70;;;6.60;;
61091;SDS011;46975;51.898;11.444;2022-12-20T05:15:09;11.45;;;4.88;;
61091;SDS011;46975;51.898;11.444;2022-12-20T05:17:35;8.45;;;4.20;;
61091;SDS011;46975;51.898;11.444;2022-12-20T05:20:01;10.02;;;5.43;;
61091;SDS011;46975;51.898;11.444;2022-12-20T05:22:27;7.18;;;4.53;;
61091;SDS011;46975;51.898;11.444;2022-12-20T05:25:11;10.18;;;4.90;;
61091;SDS011;46975;51.898;11.444;2022-12-20T05:27:56;6.18;;;4.57;;
61091;SDS011;46975;51.898;11.444;2022-12-20T05:30:23;7.45;;;4.35;;
61091;SDS011;46975;51.898;11.444;2022-12-20T05:32:49;10.85;;;5.15;;
61091;SDS011;46975;51.898;11.444;2022-12-20T05:35:15;9.35;;;5.13;;
61091;SDS011;46975;51.898;11.444;2022-12-20T05:37:41;12.15;;;6.43;;
61091;SDS011;46975;51.898;11.444;2022-12-20T05:40:07;9.50;;;5.03;;
61091;SDS011;46975;51.898;11.444;2022-12-20T05:42:33;9.70;;;6.05;;
61091;SDS011;46975;51.898;11.444;2022-12-20T05:44:59;12.10;;;6.07;;
61091;SDS011;46975;51.898;11.444;2022-12-20T05:47:27;10.80;;;5.55;;
61091;SDS011;46975;51.898;11.444;2022-12-20T05:49:57;11.27;;;6.10;;
61091;SDS011;46975;51.898;11.444;2022-12-20T05:52:24;11.02;;;6.05;;
61091;SDS011;46975;51.898;11.444;2022-12-20T05:54:49;11.82;;;6.88;;
61091;SDS011;46975;51.898;11.444;2022-12-20T05:57:15;8.32;;;6.30;;
61091;SDS011;46975;51.898;11.444;2022-12-20T05:59:41;13.82;;;6.75;;
61091;SDS011;46975;51.898;11.444;2022-12-20T06:02:07;13.70;;;7.25;;
61091;SDS011;46975;51.898;11.444;2022-12-20T06:04:34;14.18;;;6.68;;
61091;SDS011;46975;51.898;11.444;2022-12-20T06:07:00;9.75;;;6.18;;
61091;SDS011;46975;51.898;11.444;2022-12-20T06:09:26;12.93;;;6.93;;
61091;SDS011;46975;51.898;11.444;2022-12-20T06:11:52;11.60;;;7.38;;
61091;SDS011;46975;51.898;11.444;2022-12-20T06:14:17;9.25;;;5.55;;
61091;SDS011;46975;51.898;11.444;2022-12-20T06:16:43;11.45;;;6.45;;
61091;SDS011;46975;51.898;11.444;2022-12-20T06:19:09;11.75;;;6.10;;
61091;SDS011;46975;51.898;11.444;2022-12-20T06:21:34;9.55;;;6.03;;
61091;SDS011;46975;51.898;11.444;2022-12-20T06:24:00;11.45;;;6.43;;
61091;SDS011;46975;51.898;11.444;2022-12-20T06:26:26;12.75;;;7.20;;
61091;SDS011;46975;51.898;11.444;2022-12-20T06:28:52;17.67;;;7.15;;
61091;SDS011;46975;51.898;11.444;2022-12-20T06:33:46;9.85;;;5.80;;
61091;SDS011;46975;51.898;11.444;2022-12-20T06:36:12;9.57;;;5.40;;
61091;SDS011;46975;51.898;11.444;2022-12-20T06:38:38;11.73;;;7.47;;
61091;SDS011;46975;51.898;11.444;2022-12-20T06:41:03;17.60;;;10.93;;
61091;SDS011;46975;51.898;11.444;2022-12-20T06:43:29;13.80;;;8.32;;
61091;SDS011;46975;51.898;11.444;2022-12-20T06:45:55;12.50;;;7.25;;
61091;SDS011;46975;51.898;11.444;2022-12-20T06:48:20;13.55;;;7.70;;
61091;SDS011;46975;51.898;11.444;2022-12-20T06:50:49;9.95;;;6.05;;
61091;SDS011;46975;51.898;11.444;2022-12-20T06:53:15;8.05;;;5.60;;
61091;SDS011;46975;51.898;11.444;2022-12-20T06:55:41;9.13;;;5.47;;
61091;SDS011;46975;51.898;11.444;2022-12-20T06:58:07;12.52;;;6.30;;
61091;SDS011;46975;51.898;11.444;2022-12-20T07:00:32;10.65;;;5.97;;
61091;SDS011;46975;51.898;11.444;2022-12-20T07:02:58;8.02;;;5.18;;
61091;SDS011;46975;51.898;11.444;2022-12-20T07:05:24;12.80;;;5.85;;
61091;SDS011;46975;51.898;11.444;2022-12-20T07:07:49;12.70;;;6.25;;
61091;SDS011;46975;51.898;11.444;2022-12-20T07:10:15;11.70;;;5.95;;
61091;SDS011;46975;51.898;11.444;2022-12-20T07:12:41;10.57;;;6.50;;
61091;SDS011;46975;51.898;11.444;2022-12-20T07:15:07;12.02;;;6.05;;
61091;SDS011;46975;51.898;11.444;2022-12-20T07:17:33;9.70;;;6.15;;
61091;SDS011;46975;51.898;11.444;2022-12-20T07:19:59;10.18;;;6.03;;
61091;SDS011;46975;51.898;11.444;2022-12-20T07:22:25;8.98;;;5.68;;
61091;SDS011;46975;51.898;11.444;2022-12-20T07:24:51;8.30;;;6.20;;
61091;SDS011;46975;51.898;11.444;2022-12-20T07:27:17;11.00;;;6.35;;
61091;SDS011;46975;51.898;11.444;2022-12-20T07:29:42;9.57;;;5.45;;
61091;SDS011;46975;51.898;11.444;2022-12-20T07:32:08;10.48;;;5.78;;
61091;SDS011;46975;51.898;11.444;2022-12-20T07:34:36;9.75;;;6.13;;
61091;SDS011;46975;51.898;11.444;2022-12-20T07:37:01;8.15;;;4.95;;
61091;SDS011;46975;51.898;11.444;2022-12-20T07:39:27;10.52;;;5.80;;
61091;SDS011;46975;51.898;11.444;2022-12-20T07:41:53;10.43;;;5.32;;
61091;SDS011;46975;51.898;11.444;2022-12-20T07:44:20;7.25;;;4.85;;
61091;SDS011;46975;51.898;11.444;2022-12-20T07:46:46;13.40;;;6.10;;
61091;SDS011;46975;51.898;11.444;2022-12-20T07:49:11;10.93;;;6.05;;
61091;SDS011;46975;51.898;11.444;2022-12-20T07:51:39;12.05;;;5.75;;
61091;SDS011;46975;51.898;11.444;2022-12-20T07:54:14;9.20;;;5.00;;
61091;SDS011;46975;51.898;11.444;2022-12-20T07:56:46;8.48;;;4.97;;
61091;SDS011;46975;51.898;11.444;2022-12-20T07:59:15;7.28;;;5.22;;
61091;SDS011;46975;51.898;11.444;2022-12-20T08:01:44;10.70;;;6.30;;
61091;SDS011;46975;51.898;11.444;2022-12-20T08:04:12;8.80;;;5.90;;
61091;SDS011;46975;51.898;11.444;2022-12-20T08:06:41;9.98;;;5.85;;
61091;SDS011;46975;51.898;11.444;2022-12-20T08:09:06;8.32;;;5.13;;
61091;SDS011;46975;51.898;11.444;2022-12-20T08:11:36;8.23;;;4.82;;
61091;SDS011;46975;51.898;11.444;2022-12-20T08:14:03;8.40;;;5.90;;
61091;SDS011;46975;51.898;11.444;2022-12-20T08:16:30;7.75;;;4.75;;
61091;SDS011;46975;51.898;11.444;2022-12-20T08:18:56;10.55;;;5.95;;
61091;SDS011;46975;51.898;11.444;2022-12-20T08:21:22;7.90;;;4.30;;
61091;SDS011;46975;51.898;11.444;2022-12-20T08:23:47;10.02;;;6.30;;
61091;SDS011;46975;51.898;11.444;2022-12-20T08:26:13;8.68;;;5.32;;
61091;SDS011;46975;51.898;11.444;2022-12-20T08:28:39;11.23;;;5.70;;
61091;SDS011;46975;51.898;11.444;2022-12-20T08:31:05;8.90;;;5.70;;
61091;SDS011;46975;51.898;11.444;2022-12-20T08:33:32;8.18;;;5.28;;
61091;SDS011;46975;51.898;11.444;2022-12-20T08:35:59;10.55;;;5.55;;
61091;SDS011;46975;51.898;11.444;2022-12-20T08:38:30;6.88;;;4.18;;
61091;SDS011;46975;51.898;11.444;2022-12-20T08:41:03;9.50;;;4.70;;
61091;SDS011;46975;51.898;11.444;2022-12-20T08:43:39;8.70;;;5.38;;
61091;SDS011;46975;51.898;11.444;2022-12-20T08:46:06;9.57;;;5.97;;
61091;SDS011;46975;51.898;11.444;2022-12-20T08:48:33;8.80;;;4.80;;
61091;SDS011;46975;51.898;11.444;2022-12-20T08:51:00;10.07;;;4.60;;
61091;SDS011;46975;51.898;11.444;2022-12-20T08:53:28;9.73;;;5.43;;
61091;SDS011;46975;51.898;11.444;2022-12-20T08:56:02;10.52;;;6.32;;
61091;SDS011;46975;51.898;11.444;2022-12-20T08:58:41;9.07;;;4.70;;
61091;SDS011;46975;51.898;11.444;2022-12-20T09:01:12;9.55;;;5.03;;
61091;SDS011;46975;51.898;11.444;2022-12-20T09:03:39;9.93;;;6.93;;
61091;SDS011;46975;51.898;11.444;2022-12-20T09:06:07;7.72;;;4.70;;
61091;SDS011;46975;51.898;11.444;2022-12-20T09:08:37;11.88;;;4.93;;
61091;SDS011;46975;51.898;11.444;2022-12-20T09:11:04;9.95;;;5.75;;
61091;SDS011;46975;51.898;11.444;2022-12-20T09:13:31;8.85;;;5.18;;
61091;SDS011;46975;51.898;11.444;2022-12-20T09:16:01;7.85;;;5.20;;
61091;SDS011;46975;51.898;11.444;2022-12-20T09:18:27;9.52;;;6.20;;
61091;SDS011;46975;51.898;11.444;2022-12-20T09:20:53;9.07;;;5.38;;
61091;SDS011;46975;51.898;11.444;2022-12-20T09:23:19;6.82;;;5.45;;
61091;SDS011;46975;51.898;11.444;2022-12-20T09:25:44;12.25;;;5.85;;
61091;SDS011;46975;51.898;11.444;2022-12-20T09:28:10;9.90;;;5.63;;
61091;SDS011;46975;51.898;11.444;2022-12-20T09:30:35;8.73;;;5.55;;
61091;SDS011;46975;51.898;11.444;2022-12-20T09:33:01;7.60;;;4.88;;
61091;SDS011;46975;51.898;11.444;2022-12-20T09:35:27;9.60;;;5.07;;
61091;SDS011;46975;51.898;11.444;2022-12-20T09:37:52;10.48;;;5.25;;
61091;SDS011;46975;51.898;11.444;2022-12-20T09:40:19;15.57;;;8.20;;
61091;SDS011;46975;51.898;11.444;2022-12-20T09:42:47;13.75;;;6.75;;
61091;SDS011;46975;51.898;11.444;2022-12-20T09:45:19;14.52;;;7.68;;
61091;SDS011;46975;51.898;11.444;2022-12-20T09:47:51;12.18;;;6.47;;
61091;SDS011;46975;51.898;11.444;2022-12-20T09:50:17;10.80;;;6.63;;
61091;SDS011;46975;51.898;11.444;2022-12-20T09:58:01;32.40;;;17.67;;
61091;SDS011;46975;51.898;11.444;2022-12-20T10:00:48;25.92;;;14.50;;
61091;SDS011;46975;51.898;11.444;2022-12-20T10:03:19;21.58;;;11.50;;
61091;SDS011;46975;51.898;11.444;2022-12-20T10:05:54;27.55;;;13.90;;
61091;SDS011;46975;51.898;11.444;2022-12-20T10:08:36;13.43;;;8.15;;
61091;SDS011;46975;51.898;11.444;2022-12-20T10:14:32;8.88;;;4.97;;
61091;SDS011;46975;51.898;11.444;2022-12-20T10:22:49;9.38;;;5.78;;
61091;SDS011;46975;51.898;11.444;2022-12-20T10:25:21;11.05;;;5.20;;
61091;SDS011;46975;51.898;11.444;2022-12-20T10:27:49;9.20;;;5.97;;
61091;SDS011;46975;51.898;11.444;2022-12-20T10:32:46;17.05;;;12.30;;
61091;SDS011;46975;51.898;11.444;2022-12-20T10:37:39;13.10;;;9.85;;
61091;SDS011;46975;51.898;11.444;2022-12-20T10:40:28;15.27;;;8.55;;
61091;SDS011;46975;51.898;11.444;2022-12-20T10:42:56;8.95;;;4.80;;
61091;SDS011;46975;51.898;11.444;2022-12-20T10:47:48;8.23;;;5.78;;
61091;SDS011;46975;51.898;11.444;2022-12-20T10:50:19;6.63;;;4.85;;
61091;SDS011;46975;51.898;11.444;2022-12-20T10:55:40;10.40;;;5.78;;
61091;SDS011;46975;51.898;11.444;2022-12-20T10:58:14;13.95;;;6.47;;
61091;SDS011;46975;51.898;11.444;2022-12-20T11:00:46;12.82;;;7.53;;
61091;SDS011;46975;51.898;11.444;2022-12-20T11:03:15;9.15;;;5.60;;
61091;SDS011;46975;51.898;11.444;2022-12-20T11:05:53;9.27;;;4.90;;
61091;SDS011;46975;51.898;11.444;2022-12-20T11:08:20;10.02;;;4.97;;
61091;SDS011;46975;51.898;11.444;2022-12-20T11:10:48;9.23;;;4.00;;
61091;SDS011;46975;51.898;11.444;2022-12-20T11:13:21;5.85;;;4.03;;
61091;SDS011;46975;51.898;11.444;2022-12-20T11:15:50;8.20;;;4.85;;
61091;SDS011;46975;51.898;11.444;2022-12-20T11:21:18;11.77;;;5.40;;
61091;SDS011;46975;51.898;11.444;2022-12-20T11:24:21;6.10;;;3.70;;
61091;SDS011;46975;51.898;11.444;2022-12-20T11:29:39;6.70;;;3.70;;
61091;SDS011;46975;51.898;11.444;2022-12-20T11:37:48;6.13;;;3.90;;
61091;SDS011;46975;51.898;11.444;2022-12-20T11:40:32;5.95;;;2.92;;
61091;SDS011;46975;51.898;11.444;2022-12-20T11:45:29;4.75;;;3.42;;
61091;SDS011;46975;51.898;11.444;2022-12-20T11:54:00;4.55;;;3.15;;
61091;SDS011;46975;51.898;11.444;2022-12-20T12:01:51;5.03;;;3.50;;
61091;SDS011;46975;51.898;11.444;2022-12-20T12:04:34;5.65;;;3.55;;
61091;SDS011;46975;51.898;11.444;2022-12-20T12:09:55;7.03;;;3.80;;
61091;SDS011;46975;51.898;11.444;2022-12-20T12:22:47;7.30;;;4.30;;
61091;SDS011;46975;51.898;11.444;2022-12-20T12:25:17;9.05;;;4.25;;
61091;SDS011;46975;51.898;11.444;2022-12-20T12:27:43;7.38;;;4.70;;
61091;SDS011;46975;51.898;11.444;2022-12-20T12:30:13;8.15;;;4.88;;
61091;SDS011;46975;51.898;11.444;2022-12-20T12:32:45;9.20;;;5.70;;
61091;SDS011;46975;51.898;11.444;2022-12-20T12:35:46;8.52;;;5.55;;
61091;SDS011;46975;51.898;11.444;2022-12-20T12:46:59;12.23;;;6.20;;
61091;SDS011;46975;51.898;11.444;2022-12-20T12:49:29;8.57;;;6.20;;
61091;SDS011;46975;51.898;11.444;2022-12-20T12:51:57;9.13;;;5.78;;
61091;SDS011;46975;51.898;11.444;2022-12-20T12:54:25;8.18;;;5.55;;
61091;SDS011;46975;51.898;11.444;2022-12-20T12:57:13;10.15;;;6.50;;
61091;SDS011;46975;51.898;11.444;2022-12-20T12:59:42;10.13;;;5.70;;
61091;SDS011;46975;51.898;11.444;2022-12-20T13:17:58;12.32;;;5.95;;
61091;SDS011;46975;51.898;11.444;2022-12-20T13:25:33;11.63;;;7.10;;
61091;SDS011;46975;51.898;11.444;2022-12-20T13:33:19;13.13;;;6.97;;
61091;SDS011;46975;51.898;11.444;2022-12-20T13:36:49;13.00;;;6.90;;
61091;SDS011;46975;51.898;11.444;2022-12-20T13:42:16;10.80;;;7.32;;
61091;SDS011;46975;51.898;11.444;2022-12-20T13:44:49;12.18;;;7.07;;
61091;SDS011;46975;51.898;11.444;2022-12-20T13:47:22;12.15;;;4.65;;
61091;SDS011;46975;51.898;11.444;2022-12-20T13:49:55;10.43;;;6.32;;
61091;SDS011;46975;51.898;11.444;2022-12-20T13:52:33;8.02;;;4.65;;
61091;SDS011;46975;51.898;11.444;2022-12-20T13:55:15;13.20;;;5.80;;
61091;SDS011;46975;51.898;11.444;2022-12-20T13:57:47;7.60;;;5.22;;
61091;SDS011;46975;51.898;11.444;2022-12-20T14:00:31;8.63;;;5.35;;
61091;SDS011;46975;51.898;11.444;2022-12-20T14:02:57;5.72;;;4.53;;
61091;SDS011;46975;51.898;11.444;2022-12-20T14:05:25;8.00;;;4.03;;
61091;SDS011;46975;51.898;11.444;2022-12-20T14:08:02;8.30;;;4.05;;
61091;SDS011;46975;51.898;11.444;2022-12-20T14:10:37;7.75;;;4.32;;
61091;SDS011;46975;51.898;11.444;2022-12-20T14:13:02;8.35;;;4.75;;
61091;SDS011;46975;51.898;11.444;2022-12-20T14:15:42;12.15;;;4.15;;
61091;SDS011;46975;51.898;11.444;2022-12-20T14:18:21;5.85;;;3.88;;
61091;SDS011;46975;51.898;11.444;2022-12-20T14:20:49;8.52;;;4.35;;
61091;SDS011;46975;51.898;11.444;2022-12-20T14:23:19;10.55;;;5.32;;
61091;SDS011;46975;51.898;11.444;2022-12-20T14:25:53;14.13;;;5.80;;
61091;SDS011;46975;51.898;11.444;2022-12-20T14:28:34;9.50;;;6.28;;
61091;SDS011;46975;51.898;11.444;2022-12-20T14:31:02;8.40;;;5.40;;
61091;SDS011;46975;51.898;11.444;2022-12-20T14:33:30;12.88;;;6.85;;
61091;SDS011;46975;51.898;11.444;2022-12-20T14:38:47;9.15;;;5.65;;
61091;SDS011;46975;51.898;11.444;2022-12-20T14:41:31;9.13;;;5.20;;
61091;SDS011;46975;51.898;11.444;2022-12-20T14:44:02;9.90;;;6.28;;
61091;SDS011;46975;51.898;11.444;2022-12-20T14:46:31;8.50;;;6.13;;
61091;SDS011;46975;51.898;11.444;2022-12-20T14:49:21;9.50;;;6.43;;
61091;SDS011;46975;51.898;11.444;2022-12-20T14:52:10;7.68;;;5.78;;
61091;SDS011;46975;51.898;11.444;2022-12-20T14:54:42;9.73;;;5.95;;
61091;SDS011;46975;51.898;11.444;2022-12-20T14:57:15;10.25;;;4.65;;
61091;SDS011;46975;51.898;11.444;2022-12-20T15:00:27;7.43;;;4.55;;
61091;SDS011;46975;51.898;11.444;2022-12-20T15:10:54;5.00;;;3.35;;
61091;SDS011;46975;51.898;11.444;2022-12-20T15:13:33;4.40;;;3.38;;
61091;SDS011;46975;51.898;11.444;2022-12-20T15:16:00;3.75;;;2.20;;
61091;SDS011;46975;51.898;11.444;2022-12-20T15:18:28;6.03;;;3.00;;
61091;SDS011;46975;51.898;11.444;2022-12-20T15:21:02;4.45;;;1.80;;
61091;SDS011;46975;51.898;11.444;2022-12-20T15:23:51;7.22;;;3.30;;
61091;SDS011;46975;51.898;11.444;2022-12-20T15:26:19;7.57;;;4.00;;
61091;SDS011;46975;51.898;11.444;2022-12-20T15:31:14;8.23;;;4.55;;
61091;SDS011;46975;51.898;11.444;2022-12-20T15:33:42;5.13;;;3.80;;
61091;SDS011;46975;51.898;11.444;2022-12-20T15:36:15;7.18;;;3.38;;
61091;SDS011;46975;51.898;11.444;2022-12-20T15:38:43;6.22;;;3.28;;
61091;SDS011;46975;51.898;11.444;2022-12-20T15:41:12;6.03;;;3.58;;
61091;SDS011;46975;51.898;11.444;2022-12-20T15:43:42;6.25;;;4.47;;
61091;SDS011;46975;51.898;11.444;2022-12-20T15:46:09;13.23;;;4.95;;
61091;SDS011;46975;51.898;11.444;2022-12-20T15:48:34;12.35;;;5.43;;
61091;SDS011;46975;51.898;11.444;2022-12-20T15:51:00;7.28;;;4.60;;
61091;SDS011;46975;51.898;11.444;2022-12-20T15:53:29;8.55;;;5.65;;
61091;SDS011;46975;51.898;11.444;2022-12-20T15:55:56;8.57;;;4.85;;
61091;SDS011;46975;51.898;11.444;2022-12-20T15:58:22;8.07;;;5.60;;
61091;SDS011;46975;51.898;11.444;2022-12-20T16:00:49;8.93;;;5.82;;
61091;SDS011;46975;51.898;11.444;2022-12-20T16:03:20;11.10;;;5.40;;
61091;SDS011;46975;51.898;11.444;2022-12-20T16:05:47;9.15;;;4.85;;
61091;SDS011;46975;51.898;11.444;2022-12-20T16:08:15;7.85;;;5.20;;
61091;SDS011;46975;51.898;11.444;2022-12-20T16:10:42;7.97;;;5.05;;
61091;SDS011;46975;51.898;11.444;2022-12-20T16:13:13;10.15;;;5.57;;
61091;SDS011;46975;51.898;11.444;2022-12-20T16:15:40;7.88;;;5.47;;
61091;SDS011;46975;51.898;11.444;2022-12-20T16:18:06;9.20;;;6.05;;
61091;SDS011;46975;51.898;11.444;2022-12-20T16:20:32;13.05;;;7.25;;
61091;SDS011;46975;51.898;11.444;2022-12-20T16:22:57;13.35;;;7.28;;
61091;SDS011;46975;51.898;11.444;2022-12-20T16:25:33;17.23;;;9.90;;
61091;SDS011;46975;51.898;11.444;2022-12-20T16:28:00;13.15;;;8.13;;
61091;SDS011;46975;51.898;11.444;2022-12-20T16:30:27;13.52;;;8.73;;
61091;SDS011;46975;51.898;11.444;2022-12-20T16:32:52;11.57;;;8.43;;
61091;SDS011;46975;51.898;11.444;2022-12-20T16:35:22;11.57;;;7.82;;
61091;SDS011;46975;51.898;11.444;2022-12-20T16:37:51;9.80;;;6.88;;
61091;SDS011;46975;51.898;11.444;2022-12-20T16:40:17;8.77;;;5.38;;
61091;SDS011;46975;51.898;11.444;2022-12-20T16:42:43;12.77;;;5.93;;
61091;SDS011;46975;51.898;11.444;2022-12-20T16:45:16;9.40;;;6.30;;
61091;SDS011;46975;51.898;11.444;2022-12-20T16:47:44;8.18;;;5.18;;
61091;SDS011;46975;51.898;11.444;2022-12-20T16:50:10;10.68;;;6.38;;
61091;SDS011;46975;51.898;11.444;2022-12-20T16:52:37;8.60;;;5.70;;
61091;SDS011;46975;51.898;11.444;2022-12-20T16:55:03;9.70;;;6.20;;
61091;SDS011;46975;51.898;11.444;2022-12-20T16:57:29;9.90;;;6.05;;
61091;SDS011;46975;51.898;11.444;2022-12-20T16:59:54;8.20;;;5.00;;
61091;SDS011;46975;51.898;11.444;2022-12-20T17:04:49;7.97;;;4.88;;
61091;SDS011;46975;51.898;11.444;2022-12-20T17:07:14;10.15;;;6.05;;
61091;SDS011;46975;51.898;11.444;2022-12-20T17:09:40;8.98;;;6.28;;
61091;SDS011;46975;51.898;11.444;2022-12-20T17:12:19;11.18;;;6.55;;